Time;durP1;ratioP1;P1;durP2;ratioP2;P2;SDS_P1;SDS_P2;PMS_P1;PMS_P2;Temp;Humidity;BMP_temperature;BMP_pressure;BME280_temperature;BME280_humidity;BME280_pressure;Samples;Min_cycle;Max_cycle;Signal;HPM_P1;HPM_P2
2022/05/28 00:00:11;;;;;;;12.43;4.30;;;;;;;11.51;73.18;102095.34;5129850;27;20058;-64
2022/05/28 00:02:36;;;;;;;13.27;4.22;;;;;;;11.48;72.63;102086.00;5122773;27;20043;-66
2022/05/28 00:05:03;;;;;;;12.32;3.90;;;;;;;11.43;72.92;102090.66;5129623;27;20027;-64
2022/05/28 00:07:28;;;;;;;10.35;3.40;;;;;;;11.48;73.41;102086.00;5129138;27;20110;-64
2022/05/28 00:09:53;;;;;;;13.35;3.78;;;;;;;11.43;72.24;102070.72;5129379;27;20114;-64
2022/05/28 00:12:23;;;;;;;15.00;4.07;;;;;;;11.31;73.19;102083.66;5129853;27;20034;-64
2022/05/28 00:14:48;;;;;;;13.73;4.20;;;;;;;11.41;73.09;102095.09;5129487;27;20023;-64
2022/05/28 00:17:13;;;;;;;14.80;4.13;;;;;;;11.43;72.84;102085.47;5128071;27;20025;-66
2022/05/28 00:19:39;;;;;;;12.07;4.28;;;;;;;11.37;72.62;102073.72;5127972;27;20019;-69
2022/05/28 00:22:04;;;;;;;14.15;4.47;;;;;;;11.28;73.82;102063.06;5117251;27;20487;-64
2022/05/28 00:24:29;;;;;;;11.65;4.00;;;;;;;11.40;72.39;102072.66;5106612;28;20047;-64
2022/05/28 00:26:54;;;;;;;12.20;4.57;;;;;;;11.34;74.50;102062.69;5108760;28;20070;-66
2022/05/28 00:29:21;;;;;;;14.65;4.85;;;;;;;11.40;73.35;102073.50;5107080;28;20028;-64
2022/05/28 00:31:46;;;;;;;12.88;4.68;;;;;;;11.26;74.07;102070.16;5108744;28;20019;-65
2022/05/28 00:34:11;;;;;;;14.15;4.70;;;;;;;11.31;73.66;102076.72;5128110;27;20030;-65
2022/05/28 00:36:37;;;;;;;12.93;4.20;;;;;;;11.29;73.96;102075.13;5128688;27;20043;-64
2022/05/28 00:39:02;;;;;;;10.68;4.15;;;;;;;11.33;73.03;102066.22;5110872;27;20106;-63
2022/05/28 00:41:28;;;;;;;11.90;4.18;;;;;;;11.36;73.76;102071.22;5108237;28;20024;-64
2022/05/28 00:43:53;;;;;;;11.70;4.03;;;;;;;11.30;73.46;102076.81;5108417;28;20034;-64
2022/05/28 00:46:24;;;;;;;12.75;4.40;;;;;;;11.36;72.95;102063.44;5108263;28;20072;-64
2022/05/28 00:48:55;;;;;;;12.27;3.97;;;;;;;11.35;73.52;102069.53;5111969;27;20023;-65
2022/05/28 00:51:25;;;;;;;12.18;4.00;;;;;;;11.33;72.84;102061.00;5127897;27;20033;-65
2022/05/28 00:53:51;;;;;;;13.38;4.07;;;;;;;11.30;72.87;102062.06;5127053;27;20022;-65
2022/05/28 00:56:16;;;;;;;13.02;3.92;;;;;;;11.35;72.37;102064.34;5126989;27;20042;-65
2022/05/28 00:58:42;;;;;;;14.10;4.00;;;;;;;11.23;73.05;102065.13;5128841;27;20165;-64
2022/05/28 01:01:09;;;;;;;12.02;3.90;;;;;;;11.11;74.15;102062.38;5128926;27;20471;-67
2022/05/28 01:04:01;;;;;;;13.10;3.80;;;;;;;11.28;73.11;102065.66;5128389;27;20061;-67
2022/05/28 01:06:39;;;;;;;12.38;4.00;;;;;;;11.19;73.21;102064.53;5128361;27;20180;-65
2022/05/28 01:09:13;;;;;;;11.10;3.63;;;;;;;11.26;73.54;102062.34;5118869;27;20031;-66
2022/05/28 01:11:47;;;;;;;11.52;4.00;;;;;;;11.25;72.68;102061.53;5123661;27;20031;-64
2022/05/28 01:14:21;;;;;;;13.70;4.25;;;;;;;11.17;72.61;102061.16;5120108;27;20094;-65
2022/05/28 01:16:49;;;;;;;15.35;4.72;;;;;;;11.17;72.58;102067.19;5115387;27;20055;-64
2022/05/28 01:19:21;;;;;;;12.38;3.85;;;;;;;11.13;73.72;102063.16;5123327;27;20061;-64
2022/05/28 01:21:55;;;;;;;10.32;3.95;;;;;;;11.11;73.25;102067.59;5105732;27;20137;-64
2022/05/28 01:24:42;;;;;;;10.20;3.80;;;;;;;11.13;73.68;102068.34;5121058;27;20369;-64
2022/05/28 01:27:14;;;;;;;12.07;3.65;;;;;;;11.04;73.50;102066.31;5116677;27;20067;-64
2022/05/28 01:29:48;;;;;;;13.18;4.00;;;;;;;11.08;74.08;102061.78;5124790;27;20033;-64
2022/05/28 01:32:16;;;;;;;14.35;3.97;;;;;;;10.99;74.26;102063.19;5119377;27;20116;-64
2022/05/28 01:34:43;;;;;;;13.07;4.18;;;;;;;11.07;73.70;102071.31;5115108;27;20106;-64
2022/05/28 01:37:10;;;;;;;11.43;3.17;;;;;;;11.04;73.90;102070.69;5106440;27;20024;-65
2022/05/28 01:39:38;;;;;;;12.23;3.58;;;;;;;11.00;73.75;102053.63;5120346;27;20031;-64
2022/05/28 01:42:06;;;;;;;11.88;3.30;;;;;;;10.92;74.78;102045.50;5129083;27;20030;-68
2022/05/28 01:44:33;;;;;;;13.80;3.90;;;;;;;10.99;74.78;102057.16;5127145;27;20106;-65
2022/05/28 01:46:59;;;;;;;13.85;3.90;;;;;;;10.94;75.95;102054.84;5109046;27;20478;-66
2022/05/28 01:49:25;;;;;;;12.52;3.63;;;;;;;10.90;75.29;102058.59;5124996;27;20011;-64
2022/05/28 01:51:54;;;;;;;13.07;3.53;;;;;;;10.98;75.66;102055.50;5108387;27;20031;-64
2022/05/28 01:54:23;;;;;;;;;;;;;;;11.15;74.36;102053.47;5116941;27;20031;-65
2022/05/28 01:56:51;;;;;;;10.38;2.90;;;;;;;10.96;75.61;102046.97;5113984;27;19916;-64
2022/05/28 01:59:22;;;;;;;12.90;2.88;;;;;;;10.90;76.36;102041.25;5118029;27;20027;-66
2022/05/28 02:01:47;;;;;;;14.23;3.78;;;;;;;10.86;75.93;102026.78;5118181;27;20104;-63
2022/05/28 02:04:13;;;;;;;12.30;3.53;;;;;;;10.94;75.80;102028.06;5107190;27;20039;-65
2022/05/28 02:06:40;;;;;;;11.77;3.03;;;;;;;10.94;76.07;102028.88;5116959;27;20596;-65
2022/05/28 02:09:09;;;;;;;11.95;3.35;;;;;;;10.91;76.43;102029.09;5112231;27;20390;-66
2022/05/28 02:12:13;;;;;;;13.63;3.33;;;;;;;10.97;75.24;102028.72;5134885;27;20156;-64
2022/05/28 02:15:16;;;;;;;11.50;3.25;;;;;;;11.03;75.92;102030.06;5119025;27;20072;-64
2022/05/28 02:17:52;;;;;;;11.68;2.80;;;;;;;10.96;76.19;102027.03;5117223;27;20102;-65
2022/05/28 02:20:40;;;;;;;11.38;3.08;;;;;;;10.95;75.45;102025.34;5114867;27;20365;-64
2022/05/28 02:23:14;;;;;;;13.45;3.20;;;;;;;10.91;76.15;102034.28;5126312;27;20098;-64
2022/05/28 02:25:51;;;;;;;13.23;3.25;;;;;;;10.93;75.65;102027.22;5119930;27;20058;-65
2022/05/28 02:28:17;;;;;;;12.18;3.30;;;;;;;10.81;76.86;102022.81;5120573;27;20035;-67
2022/05/28 02:30:49;;;;;;;12.23;2.78;;;;;;;10.92;76.29;102025.56;5113489;27;20063;-64
2022/05/28 02:33:15;;;;;;;12.88;3.15;;;;;;;10.90;76.95;102027.44;5128992;27;20023;-64
2022/05/28 02:35:41;;;;;;;14.40;3.00;;;;;;;10.90;76.49;102033.47;5110641;27;20031;-65
2022/05/28 02:38:07;;;;;;;13.82;3.47;;;;;;;10.88;77.32;102029.28;5107988;27;20027;-65
2022/05/28 02:40:32;;;;;;;15.25;3.33;;;;;;;10.86;77.25;102031.16;5115393;27;20016;-64
2022/05/28 02:42:57;;;;;;;13.30;3.05;;;;;;;10.82;78.21;102034.88;5109882;27;20019;-65
2022/05/28 02:45:23;;;;;;;15.30;3.50;;;;;;;10.81;78.30;102036.63;5109827;27;20058;-64
2022/05/28 02:47:48;;;;;;;13.60;3.08;;;;;;;10.88;78.28;102039.66;5119733;27;20019;-64
2022/05/28 02:50:13;;;;;;;13.07;3.78;;;;;;;10.80;77.78;102042.75;5121663;27;20460;-64
2022/05/28 02:52:39;;;;;;;13.18;3.33;;;;;;;10.77;78.60;102037.75;5128252;27;20528;-64
2022/05/28 02:55:05;;;;;;;12.82;3.45;;;;;;;10.81;78.51;102044.41;5119149;27;20459;-64
2022/05/28 02:57:30;;;;;;;13.25;3.50;;;;;;;10.73;78.79;102040.66;5109984;27;20024;-64
2022/05/28 02:59:56;;;;;;;13.38;3.35;;;;;;;10.76;78.17;102040.44;5109115;27;20019;-64
2022/05/28 03:02:22;;;;;;;13.15;3.50;;;;;;;10.60;78.99;102025.81;5124333;27;20047;-63
2022/05/28 03:04:47;;;;;;;13.88;3.63;;;;;;;10.59;79.24;102044.91;5118671;27;20528;-65
2022/05/28 03:07:13;;;;;;;13.90;3.53;;;;;;;10.67;78.99;102046.19;5110317;27;20031;-64
2022/05/28 03:09:38;;;;;;;15.35;3.75;;;;;;;10.64;79.76;102036.84;5120161;27;20463;-64
2022/05/28 03:12:04;;;;;;;16.58;3.90;;;;;;;10.62;79.31;102039.56;5108651;27;20030;-65
2022/05/28 03:14:29;;;;;;;13.38;3.75;;;;;;;10.63;79.04;102042.97;5128281;27;20097;-64
2022/05/28 03:16:55;;;;;;;14.77;3.45;;;;;;;10.60;80.25;102050.94;5122776;27;20617;-65
2022/05/28 03:19:20;;;;;;;14.93;3.72;;;;;;;10.58;79.34;102050.22;5108310;27;20039;-65
2022/05/28 03:21:45;;;;;;;15.15;3.63;;;;;;;10.49;80.02;102043.81;5117514;27;20023;-64
2022/05/28 03:24:11;;;;;;;12.95;3.53;;;;;;;10.58;79.58;102048.44;5109879;27;20051;-66
2022/05/28 03:26:37;;;;;;;14.32;3.95;;;;;;;10.58;79.39;102032.88;5120609;27;20041;-64
2022/05/28 03:29:04;;;;;;;15.32;3.97;;;;;;;10.63;79.18;102050.75;5121088;27;20031;-64
2022/05/28 03:31:29;;;;;;;14.43;4.18;;;;;;;10.56;78.99;102042.53;5130002;27;20482;-64
2022/05/28 03:33:56;;;;;;;14.50;4.13;;;;;;;10.47;80.54;102050.88;5108666;27;20042;-65
2022/05/28 03:36:22;;;;;;;14.70;3.65;;;;;;;10.55;79.81;102043.47;5107493;27;20030;-64
2022/05/28 03:38:48;;;;;;;14.93;3.85;;;;;;;10.60;79.84;102051.78;5115092;27;20027;-64
2022/05/28 03:41:13;;;;;;;14.05;4.10;;;;;;;10.52;80.15;102048.84;5120216;27;20235;-65
2022/05/28 03:43:38;;;;;;;13.65;4.15;;;;;;;10.53;79.78;102050.50;5115422;27;20520;-65
2022/05/28 03:46:04;;;;;;;15.38;3.70;;;;;;;10.45;80.54;102046.72;5126851;27;20114;-67
2022/05/28 03:48:32;;;;;;;14.45;4.07;;;;;;;10.44;81.07;102056.25;5122806;27;20046;-67
2022/05/28 03:50:58;;;;;;;18.00;4.13;;;;;;;10.39;81.15;102047.94;5108103;27;20034;-65
2022/05/28 03:53:23;;;;;;;14.70;3.78;;;;;;;10.46;81.05;102064.78;5107693;27;20028;-64
2022/05/28 03:55:49;;;;;;;14.10;3.80;;;;;;;10.42;81.31;102065.88;5109885;27;20130;-63
2022/05/28 03:58:14;;;;;;;15.13;3.80;;;;;;;10.40;81.12;102059.97;5108479;27;20032;-64
2022/05/28 04:00:40;;;;;;;15.30;3.60;;;;;;;10.45;81.63;102065.72;5114854;27;20031;-63
2022/05/28 04:03:06;;;;;;;18.48;3.60;;;;;;;10.43;81.49;102062.34;5126730;27;20026;-65
2022/05/28 04:05:31;;;;;;;15.65;4.07;;;;;;;10.39;82.02;102067.84;5112019;27;20057;-64
2022/05/28 04:07:56;;;;;;;15.07;3.70;;;;;;;10.38;82.15;102072.19;5109172;27;20031;-64
2022/05/28 04:10:22;;;;;;;15.35;3.85;;;;;;;10.35;81.21;102067.19;5113370;27;20509;-64
2022/05/28 04:12:48;;;;;;;18.48;4.43;;;;;;;10.38;81.64;102074.78;5122299;27;20386;-64
2022/05/28 04:15:14;;;;;;;15.32;3.85;;;;;;;10.37;81.83;102073.09;5111225;27;20459;-65
2022/05/28 04:17:40;;;;;;;14.85;4.43;;;;;;;10.36;81.48;102074.88;5122800;27;20023;-64
2022/05/28 04:20:09;;;;;;;14.70;4.10;;;;;;;10.37;81.10;102075.69;5118168;27;20484;-64
2022/05/28 04:22:34;;;;;;;15.30;4.50;;;;;;;10.39;80.77;102079.06;5106535;27;20180;-67
2022/05/28 04:24:59;;;;;;;13.57;4.00;;;;;;;10.37;81.29;102081.72;5105648;27;20051;-64
2022/05/28 04:27:25;;;;;;;14.75;4.38;;;;;;;10.42;80.72;102073.66;5106599;27;20046;-64
2022/05/28 04:29:50;;;;;;;15.73;4.13;;;;;;;10.44;81.09;102077.00;5106833;27;20035;-64
2022/05/28 04:32:16;;;;;;;16.65;4.90;;;;;;;10.40;81.52;102075.53;5119458;27;20479;-63
2022/05/28 04:34:41;;;;;;;15.05;4.72;;;;;;;10.42;81.66;102078.84;5108093;27;20043;-64
2022/05/28 04:37:07;;;;;;;16.67;4.70;;;;;;;10.46;82.20;102089.88;5108034;27;20166;-64
2022/05/28 04:39:32;;;;;;;17.25;5.40;;;;;;;10.47;82.12;102082.00;5116447;27;20538;-64
2022/05/28 04:41:58;;;;;;;16.60;4.82;;;;;;;10.44;81.11;102087.38;5118972;27;20023;-65
2022/05/28 04:44:23;;;;;;;16.92;5.30;;;;;;;10.44;81.47;102082.19;5118813;27;20039;-64
2022/05/28 04:46:48;;;;;;;16.55;4.95;;;;;;;10.37;82.14;102076.53;5126017;27;20030;-65
2022/05/28 04:49:14;;;;;;;17.77;5.55;;;;;;;10.50;81.83;102092.19;5116019;27;20028;-65
2022/05/28 04:51:39;;;;;;;16.30;4.70;;;;;;;10.51;81.37;102093.88;5107048;27;20016;-64
2022/05/28 04:54:04;;;;;;;15.10;5.15;;;;;;;10.48;81.64;102094.03;5116102;27;20030;-66
2022/05/28 04:56:30;;;;;;;16.10;5.55;;;;;;;10.52;81.83;102100.72;5124885;27;20416;-64
2022/05/28 04:58:55;;;;;;;15.48;5.05;;;;;;;10.50;82.32;102092.19;5119665;27;20131;-64
2022/05/28 05:01:22;;;;;;;16.38;5.10;;;;;;;10.46;82.59;102093.31;5120540;27;20027;-67
2022/05/28 05:03:48;;;;;;;14.70;4.90;;;;;;;10.50;81.32;102092.19;5112709;27;20501;-64
2022/05/28 05:06:13;;;;;;;15.15;4.50;;;;;;;10.60;82.02;102098.47;5113465;27;20079;-66
2022/05/28 05:08:39;;;;;;;14.38;5.03;;;;;;;10.55;81.48;102097.09;5110464;27;20064;-65
2022/05/28 05:11:04;;;;;;;17.10;4.80;;;;;;;10.61;81.35;102104.53;5116572;27;20115;-65
2022/05/28 05:13:30;;;;;;;14.77;4.88;;;;;;;10.63;81.28;102095.69;5118340;27;20106;-63
2022/05/28 05:15:55;;;;;;;17.35;4.40;;;;;;;10.64;81.36;102099.13;5109367;27;20409;-64
2022/05/28 05:18:21;;;;;;;15.45;3.83;;;;;;;10.64;81.04;102099.97;5116069;27;20341;-64
2022/05/28 05:20:47;;;;;;;14.85;3.95;;;;;;;10.64;81.17;102099.97;5119123;27;20351;-64
2022/05/28 05:23:12;;;;;;;12.93;3.90;;;;;;;10.67;81.02;102108.47;5113251;27;20023;-64
2022/05/28 05:25:38;;;;;;;15.00;3.78;;;;;;;10.69;80.70;102098.84;5115964;27;20048;-63
2022/05/28 05:28:04;;;;;;;13.95;3.47;;;;;;;10.73;78.89;102103.75;5106402;27;20070;-64
2022/05/28 05:30:29;;;;;;;10.75;2.75;;;;;;;10.78;78.01;102108.63;5117656;27;20054;-64
2022/05/28 05:32:55;;;;;;;10.13;2.40;;;;;;;10.78;77.46;102113.81;5110849;27;20106;-64
2022/05/28 05:35:21;;;;;;;13.52;2.72;;;;;;;10.86;77.07;102103.81;5117359;27;20452;-64
2022/05/28 05:37:46;;;;;;;8.70;1.98;;;;;;;10.88;77.15;102112.34;5107794;27;20033;-64
2022/05/28 05:40:12;;;;;;;10.13;2.10;;;;;;;10.89;75.67;102114.00;5118920;27;20436;-64
2022/05/28 05:42:38;;;;;;;9.15;2.35;;;;;;;10.85;76.10;102115.13;5119847;27;20031;-63
2022/05/28 05:45:03;;;;;;;9.38;2.03;;;;;;;10.86;74.55;102109.84;5106311;27;20046;-64
2022/05/28 05:47:29;;;;;;;8.82;2.03;;;;;;;10.94;73.44;102122.34;5118983;27;20382;-63
2022/05/28 05:49:54;;;;;;;10.80;2.10;;;;;;;10.97;74.03;102122.16;5111005;27;20026;-64
2022/05/28 05:52:19;;;;;;;10.05;1.92;;;;;;;10.97;74.12;102116.97;5117808;27;20035;-64
2022/05/28 05:54:45;;;;;;;10.70;2.17;;;;;;;11.08;73.98;102124.09;5110800;27;20031;-64
2022/05/28 05:57:10;;;;;;;7.00;1.80;;;;;;;11.10;74.56;102117.84;5118338;27;20019;-64
2022/05/28 05:59:36;;;;;;;10.48;1.88;;;;;;;11.09;72.64;102126.59;5117133;27;20359;-64
2022/05/28 06:02:01;;;;;;;9.85;2.10;;;;;;;11.11;72.06;102123.88;5117675;27;20616;-64
2022/05/28 06:04:26;;;;;;;9.88;1.95;;;;;;;11.14;72.67;102134.91;5117928;27;20419;-63
2022/05/28 06:06:52;;;;;;;7.40;1.90;;;;;;;11.20;72.37;102122.47;5121903;27;20515;-67
2022/05/28 06:09:18;;;;;;;9.45;1.80;;;;;;;11.24;72.03;102131.72;5105611;27;20039;-64
2022/05/28 06:11:43;;;;;;;8.73;2.00;;;;;;;11.25;70.44;102125.63;5115967;27;20029;-63
2022/05/28 06:14:09;;;;;;;9.68;1.70;;;;;;;11.21;70.62;102129.34;5113998;27;20023;-65
2022/05/28 06:16:34;;;;;;;10.02;2.00;;;;;;;11.31;71.42;102133.03;5115818;27;20079;-65
2022/05/28 06:19:01;;;;;;;8.25;1.73;;;;;;;11.34;69.94;102130.22;5115861;27;20035;-63
2022/05/28 06:21:27;;;;;;;10.23;1.80;;;;;;;11.41;69.79;102134.06;5110643;27;20027;-63
2022/05/28 06:23:53;;;;;;;7.63;1.90;;;;;;;11.43;69.14;102145.22;5115606;27;20396;-64
2022/05/28 06:26:19;;;;;;;6.88;1.55;;;;;;;11.39;66.78;102136.78;5113978;27;20094;-64
2022/05/28 06:28:45;;;;;;;8.25;2.00;;;;;;;11.44;67.14;102136.50;5112687;27;20032;-64
2022/05/28 06:31:12;;;;;;;7.82;2.05;;;;;;;11.40;68.33;102130.66;5114284;27;20078;-64
2022/05/28 06:33:38;;;;;;;8.48;1.85;;;;;;;11.51;67.66;102142.94;5110421;27;20023;-64
2022/05/28 06:36:05;;;;;;;8.63;1.70;;;;;;;11.65;69.55;102149.88;5111452;27;20024;-64
2022/05/28 06:38:31;;;;;;;8.95;1.80;;;;;;;11.63;66.90;102142.16;5112429;27;20062;-65
2022/05/28 06:40:57;;;;;;;9.00;2.05;;;;;;;11.68;66.66;102149.66;5114785;27;20114;-65
2022/05/28 06:43:23;;;;;;;9.43;2.10;;;;;;;11.65;66.89;102150.69;5111597;27;20118;-64
2022/05/28 06:45:48;;;;;;;10.73;2.00;;;;;;;11.63;65.93;102147.34;5113058;27;20410;-65
2022/05/28 06:48:14;;;;;;;8.10;1.75;;;;;;;11.68;66.78;102142.69;5103385;27;20497;-64
2022/05/28 06:53:24;;;;;;;11.75;1.95;;;;;;;11.66;63.53;102141.97;5116325;27;20379;-64
2022/05/28 06:55:50;;;;;;;8.63;1.80;;;;;;;11.70;62.27;102138.25;5124607;27;20027;-64
2022/05/28 06:58:15;;;;;;;9.27;1.90;;;;;;;11.74;62.37;102154.44;5122501;27;20082;-66
2022/05/28 07:00:40;;;;;;;8.95;1.98;;;;;;;11.68;62.84;102150.47;5118802;27;20039;-63
2022/05/28 07:03:12;;;;;;;7.15;1.92;;;;;;;11.71;63.12;102146.88;5120791;27;20019;-65
2022/05/28 07:05:37;;;;;;;8.18;1.80;;;;;;;11.93;64.24;102146.34;5118811;27;20031;-65
2022/05/28 07:08:03;;;;;;;9.93;1.90;;;;;;;11.98;63.53;102149.44;5117034;27;20024;-64
2022/05/28 07:10:28;;;;;;;7.13;2.00;;;;;;;11.92;63.31;102152.44;5114785;27;20110;-64
2022/05/28 07:12:54;;;;;;;10.00;1.85;;;;;;;11.99;63.04;102151.13;5117664;27;20467;-64
2022/05/28 07:15:19;;;;;;;7.22;1.67;;;;;;;12.11;63.28;102152.06;5113069;27;20031;-64
2022/05/28 07:17:45;;;;;;;8.60;2.00;;;;;;;12.14;61.94;102163.09;5115202;27;20039;-63
2022/05/28 07:20:11;;;;;;;8.63;1.73;;;;;;;12.04;62.01;102145.59;5117570;27;20474;-64
2022/05/28 07:22:36;;;;;;;8.45;2.00;;;;;;;12.26;62.87;102145.81;5113490;27;20059;-64
2022/05/28 07:25:03;;;;;;;9.07;1.80;;;;;;;12.43;63.46;102147.28;5120595;27;20043;-67
2022/05/28 07:27:28;;;;;;;8.00;1.65;;;;;;;12.49;63.49;102147.69;5124128;27;20031;-64
2022/05/28 07:29:55;;;;;;;10.45;2.10;;;;;;;12.54;62.89;102139.56;5128200;27;20038;-64
2022/05/28 07:32:22;;;;;;;7.55;1.77;;;;;;;12.59;63.45;102158.31;5120572;27;20023;-64
2022/05/28 07:34:48;;;;;;;10.18;1.75;;;;;;;12.71;64.24;102136.63;5119218;27;20026;-67
2022/05/28 07:37:13;;;;;;;11.90;1.88;;;;;;;12.82;62.54;102161.91;5119210;27;20023;-66
2022/05/28 07:39:39;;;;;;;10.05;2.10;;;;;;;12.74;61.60;102151.22;5118205;27;20082;-65
2022/05/28 07:42:04;;;;;;;8.10;2.00;;;;;;;13.01;63.84;102158.84;5120383;27;20070;-66
2022/05/28 07:44:30;;;;;;;8.43;1.88;;;;;;;12.98;61.87;102148.66;5117200;27;20062;-66
2022/05/28 07:46:56;;;;;;;8.82;1.88;;;;;;;12.86;60.09;102159.94;5119047;27;20497;-66
2022/05/28 07:49:21;;;;;;;11.48;2.30;;;;;;;12.83;61.70;102154.94;5115696;27;20027;-64
2022/05/28 07:51:46;;;;;;;8.68;2.00;;;;;;;13.05;61.70;102147.28;5115562;27;20098;-64
2022/05/28 07:54:13;;;;;;;9.85;1.90;;;;;;;12.97;61.15;102157.44;5117419;27;20073;-67
2022/05/28 07:56:38;;;;;;;8.95;1.95;;;;;;;12.88;60.93;102152.84;5112732;27;20342;-64
2022/05/28 07:59:04;;;;;;;7.53;1.90;;;;;;;13.08;62.49;102154.91;5108945;27;20031;-65
2022/05/28 08:01:31;;;;;;;6.93;1.60;;;;;;;12.92;60.19;102152.53;5116242;27;20027;-64
2022/05/28 08:04:01;;;;;;;10.77;1.80;;;;;;;13.00;60.48;102151.97;5115666;27;20035;-65
2022/05/28 08:06:27;;;;;;;7.15;1.77;;;;;;;12.97;60.07;102142.63;5119125;27;20030;-66
2022/05/28 08:08:53;;;;;;;9.23;1.77;;;;;;;12.74;59.71;102156.44;5110754;27;20032;-63
2022/05/28 08:11:20;;;;;;;10.15;1.83;;;;;;;12.88;59.53;102158.06;5111836;27;20469;-65
2022/05/28 08:13:46;;;;;;;11.40;2.15;;;;;;;12.88;58.17;102152.84;5109616;27;20112;-64
2022/05/28 08:16:12;;;;;;;7.68;1.92;;;;;;;13.08;58.48;102144.47;5117390;27;20118;-64
2022/05/28 08:18:39;;;;;;;8.38;1.80;;;;;;;13.18;59.28;102155.06;5119625;27;20028;-66
2022/05/28 08:23:49;;;;;;;7.15;1.63;;;;;;;13.41;58.68;102140.41;5107357;27;20376;-64
2022/05/28 08:26:19;;;;;;;7.25;1.65;;;;;;;13.43;56.10;102152.41;5112982;27;20027;-64
2022/05/28 08:28:46;;;;;;;8.35;1.80;;;;;;;13.54;55.08;102151.63;5118886;27;20067;-68
2022/05/28 08:31:11;;;;;;;8.70;1.95;;;;;;;13.62;54.57;102144.06;5111501;27;20072;-63
2022/05/28 08:33:37;;;;;;;8.88;1.90;;;;;;;13.55;52.01;102142.84;5127879;27;20061;-64
2022/05/28 08:36:02;;;;;;;7.88;1.70;;;;;;;13.60;51.18;102155.56;5125080;27;20019;-64
2022/05/28 08:38:28;;;;;;;6.78;1.58;;;;;;;13.66;52.20;102155.94;5125764;27;20381;-63
2022/05/28 08:41:05;;;;;;;8.40;1.83;;;;;;;13.61;52.42;102152.81;5127546;27;20501;-64
2022/05/28 08:43:34;;;;;;;7.72;1.90;;;;;;;13.75;53.64;102150.03;5108034;27;20034;-64
2022/05/28 08:46:00;;;;;;;9.05;1.92;;;;;;;13.79;52.81;102156.69;5129380;27;20046;-64
2022/05/28 08:48:40;;;;;;;6.95;1.60;;;;;;;13.99;55.87;102141.31;5105487;27;20028;-64
2022/05/28 08:51:15;;;;;;;7.95;1.58;;;;;;;13.96;50.97;102141.56;5118809;27;20449;-63
2022/05/28 08:53:50;;;;;;;8.15;1.80;;;;;;;14.07;52.08;102144.19;5112901;27;20072;-64
2022/05/28 08:56:21;;;;;;;6.40;1.70;;;;;;;14.16;51.76;102143.47;5125944;27;20027;-67
2022/05/28 08:58:57;;;;;;;8.57;1.88;;;;;;;14.33;53.18;102145.63;5114256;27;20027;-65
2022/05/28 09:01:24;;;;;;;8.23;1.88;;;;;;;14.43;52.31;102150.16;5123778;27;20038;-67
2022/05/28 09:04:00;;;;;;;7.53;1.80;;;;;;;14.23;51.60;102149.91;5111866;27;20031;-64
2022/05/28 09:06:49;;;;;;;6.57;1.63;;;;;;;14.26;53.42;102143.63;5113487;27;20096;-68
2022/05/28 09:09:16;;;;;;;9.73;1.88;;;;;;;14.50;53.73;102143.56;5114107;27;20073;-63
2022/05/28 09:11:55;;;;;;;8.70;1.80;;;;;;;14.56;54.33;102140.47;5115249;27;20342;-64
2022/05/28 09:14:22;;;;;;;7.53;1.60;;;;;;;14.65;51.49;102150.22;5113148;27;20054;-64
2022/05/28 09:17:10;;;;;;;8.10;1.63;;;;;;;14.83;52.76;102153.16;5117834;27;20035;-65
2022/05/28 09:19:45;;;;;;;6.50;1.52;;;;;;;14.77;50.32;102144.03;5117724;27;20051;-64
2022/05/28 09:22:10;;;;;;;5.55;1.45;;;;;;;14.66;48.68;102149.25;5111303;27;20052;-68
2022/05/28 09:24:36;;;;;;;7.43;1.60;;;;;;;14.54;49.30;102152.81;5120016;27;20044;-64
2022/05/28 09:27:27;;;;;;;8.43;2.05;;;;;;;14.74;51.33;102153.91;5116407;27;20036;-63
2022/05/28 09:30:11;;;;;;;6.30;1.67;;;;;;;14.81;51.20;102150.66;5121918;27;20027;-63
2022/05/28 09:32:54;;;;;;;8.18;1.90;;;;;;;14.75;50.47;102145.94;5122782;27;20038;-64
2022/05/28 09:35:25;;;;;;;7.78;1.88;;;;;;;14.94;51.11;102149.72;5104982;27;20047;-63
2022/05/28 09:38:04;;;;;;;9.38;2.08;;;;;;;15.06;51.11;102151.34;5107722;27;20023;-65
2022/05/28 09:40:49;;;;;;;7.68;1.85;;;;;;;15.06;50.82;102148.72;5106703;27;20065;-64
2022/05/28 09:43:38;;;;;;;9.40;1.95;;;;;;;15.13;51.40;102139.44;5118465;27;20502;-66
2022/05/28 09:46:20;;;;;;;9.10;1.77;;;;;;;15.09;50.32;102144.09;5119563;27;20023;-67
2022/05/28 09:48:57;;;;;;;8.70;1.90;;;;;;;15.25;48.59;102143.69;5110644;27;20070;-68
2022/05/28 09:51:25;;;;;;;8.13;1.70;;;;;;;15.14;46.99;102136.72;5127962;27;20393;-67
2022/05/28 09:54:17;;;;;;;8.98;1.98;;;;;;;15.20;48.28;102124.94;5110993;27;20039;-63
2022/05/28 09:56:55;;;;;;;7.20;1.75;;;;;;;15.14;49.15;102130.69;5109854;27;20282;-63
2022/05/28 09:59:26;;;;;;;8.45;1.80;;;;;;;14.96;47.77;102125.09;5126019;27;20509;-64
2022/05/28 10:01:57;;;;;;;5.78;1.50;;;;;;;15.34;48.76;102132.50;5121220;27;20044;-64
2022/05/28 10:04:29;;;;;;;7.13;1.52;;;;;;;15.26;47.16;102119.22;5127255;27;20043;-64
2022/05/28 10:06:56;;;;;;;11.88;1.95;;;;;;;15.25;47.66;102128.00;5121948;27;20497;-64
2022/05/28 10:09:33;;;;;;;6.95;1.83;;;;;;;15.02;49.40;102132.47;5123577;27;20023;-64
2022/05/28 10:12:12;;;;;;;6.82;1.80;;;;;;;14.90;47.38;102122.16;5105276;27;21129;-63
2022/05/28 10:14:37;;;;;;;7.82;1.85;;;;;;;14.92;48.72;102134.16;5116909;27;20080;-65
2022/05/28 10:17:04;;;;;;;7.47;1.80;;;;;;;15.02;48.27;102121.19;5120944;27;20031;-64
2022/05/28 10:19:41;;;;;;;7.57;1.50;;;;;;;15.17;47.18;102114.72;5116688;27;20050;-64
2022/05/28 10:22:14;;;;;;;8.57;1.63;;;;;;;15.20;47.48;102111.88;5115911;27;20054;-64
2022/05/28 10:24:58;;;;;;;7.18;1.73;;;;;;;15.61;48.59;102123.38;5109209;27;20043;-65
2022/05/28 10:27:37;;;;;;;7.85;1.70;;;;;;;15.59;46.50;102120.03;5118284;27;20126;-64
2022/05/28 10:30:34;;;;;;;7.47;2.25;;;;;;;15.53;45.85;102115.31;5107104;27;20023;-66
2022/05/28 10:33:08;;;;;;;9.55;2.15;;;;;;;15.12;46.67;102116.88;5111222;27;20027;-66
2022/05/28 10:35:34;;;;;;;8.52;1.92;;;;;;;15.05;48.39;102120.94;5119395;27;20053;-64
2022/05/28 10:38:27;;;;;;;7.03;1.63;;;;;;;15.14;47.56;102120.22;5109714;27;20027;-64
2022/05/28 10:41:00;;;;;;;6.47;1.70;;;;;;;15.29;45.88;102121.56;5122524;27;20609;-64
2022/05/28 10:43:37;;;;;;;5.47;1.45;;;;;;;15.40;44.62;102115.47;5108894;27;20110;-64
2022/05/28 10:46:36;;;;;;;5.97;1.50;;;;;;;15.46;44.44;102119.38;5135531;27;20045;-64
2022/05/28 10:49:12;;;;;;;7.18;1.60;;;;;;;15.32;45.06;102113.50;5097258;27;20039;-65
2022/05/28 10:52:03;;;;;;;8.05;2.08;;;;;;;15.53;46.52;102118.75;5121570;27;20031;-64
2022/05/28 10:55:03;;;;;;;8.98;2.00;;;;;;;15.63;44.82;102116.25;5126894;27;20569;-63
2022/05/28 10:57:54;;;;;;;9.02;1.80;;;;;;;15.67;47.82;102112.44;5074444;27;20072;-65
2022/05/28 11:01:01;;;;;;;7.68;1.90;;;;;;;15.82;44.90;102112.94;5113612;27;20048;-64
2022/05/28 11:04:04;;;;;;;7.43;1.70;;;;;;;15.76;44.59;102111.66;5121784;27;20046;-64
2022/05/28 11:06:51;;;;;;;9.10;2.10;;;;;;;15.86;45.41;102112.53;5113739;27;20472;-65
2022/05/28 11:09:28;;;;;;;7.20;1.90;;;;;;;16.12;47.67;102109.53;5117380;27;20055;-65
2022/05/28 11:12:10;;;;;;;8.35;2.00;;;;;;;16.08;45.34;102110.75;5115915;27;20118;-64
2022/05/28 11:14:55;;;;;;;8.38;1.70;;;;;;;16.17;45.76;102104.72;5128763;27;20177;-64
2022/05/28 11:17:29;;;;;;;7.82;1.75;;;;;;;16.14;44.66;102105.00;5121810;27;20538;-67
2022/05/28 11:20:11;;;;;;;9.25;1.70;;;;;;;16.05;44.08;102105.75;5122153;27;20080;-64
2022/05/28 11:22:54;;;;;;;9.80;1.98;;;;;;;15.93;45.14;102108.44;5111791;27;20027;-65
2022/05/28 11:25:42;;;;;;;7.00;2.03;;;;;;;15.74;45.96;102103.09;5117806;27;20052;-64
2022/05/28 11:28:23;;;;;;;8.13;1.80;;;;;;;15.81;46.09;102109.47;5107579;27;20515;-64
2022/05/28 11:30:53;;;;;;;8.00;1.98;;;;;;;15.93;47.05;102113.69;5105766;27;20065;-64
2022/05/28 11:33:40;;;;;;;8.13;2.00;;;;;;;16.02;46.60;102111.28;5113975;27;20034;-64
2022/05/28 11:36:29;;;;;;;8.20;2.15;;;;;;;16.06;44.90;102102.22;5124555;27;20528;-68
2022/05/28 11:39:02;;;;;;;7.65;1.90;;;;;;;16.09;43.74;102108.00;5116580;27;20067;-64